sensor_id;sensor_type;location;lat;lon;timestamp;pressure;altitude;pressure_sealevel;temperature;humidity
19112;BME280;9688;51.906;8.376;2023-05-11T00:00:31;100516.00;;;14.98;100.00
19112;BME280;9688;51.906;8.376;2023-05-11T00:03:16;100516.00;;;14.98;100.00
19112;BME280;9688;51.906;8.376;2023-05-11T00:06:01;100510.34;;;14.88;100.00
19112;BME280;9688;51.906;8.376;2023-05-11T00:08:52;100506.06;;;14.85;100.00
19112;BME280;9688;51.906;8.376;2023-05-11T00:11:37;100511.47;;;14.84;100.00
19112;BME280;9688;51.906;8.376;2023-05-11T00:14:23;100509.78;;;14.83;100.00
19112;BME280;9688;51.906;8.376;2023-05-11T00:17:09;100508.03;;;14.82;100.00
19112;BME280;9688;51.906;8.376;2023-05-11T00:19:55;100507.13;;;14.83;100.00
19112;BME280;9688;51.906;8.376;2023-05-11T00:22:40;100506.16;;;14.84;100.00
19112;BME280;9688;51.906;8.376;2023-05-11T00:25:28;100500.84;;;14.84;100.00
19112;BME280;9688;51.906;8.376;2023-05-11T00:28:13;100507.88;;;14.85;100.00
19112;BME280;9688;51.906;8.376;2023-05-11T00:30:59;100511.38;;;14.85;100.00
19112;BME280;9688;51.906;8.376;2023-05-11T00:33:45;100504.16;;;14.87;100.00
19112;BME280;9688;51.906;8.376;2023-05-11T00:36:30;100503.31;;;14.87;100.00
19112;BME280;9688;51.906;8.376;2023-05-11T00:39:16;100498.84;;;14.87;100.00
19112;BME280;9688;51.906;8.376;2023-05-11T00:42:03;100498.00;;;14.87;100.00
19112;BME280;9688;51.906;8.376;2023-05-11T00:44:49;100503.31;;;14.87;100.00
19112;BME280;9688;51.906;8.376;2023-05-11T00:47:35;100499.69;;;14.88;100.00
19112;BME280;9688;51.906;8.376;2023-05-11T00:50:20;100497.91;;;14.88;100.00
19112;BME280;9688;51.906;8.376;2023-05-11T00:53:06;100497.81;;;14.90;100.00
19112;BME280;9688;51.906;8.376;2023-05-11T00:55:52;100495.06;;;14.91;100.00
19112;BME280;9688;51.906;8.376;2023-05-11T00:58:39;100500.28;;;14.93;100.00
19112;BME280;9688;51.906;8.376;2023-05-11T01:01:25;100505.44;;;14.96;100.00
19112;BME280;9688;51.906;8.376;2023-05-11T01:04:11;100508.03;;;14.98;100.00
19112;BME280;9688;51.906;8.376;2023-05-11T01:07:05;100501.91;;;14.95;100.00
19112;BME280;9688;51.906;8.376;2023-05-11T01:09:59;100502.78;;;14.96;100.00
19112;BME280;9688;51.906;8.376;2023-05-11T01:12:57;100502.78;;;14.96;100.00
19112;BME280;9688;51.906;8.376;2023-05-11T01:15:49;100511.66;;;14.97;100.00
19112;BME280;9688;51.906;8.376;2023-05-11T01:18:39;100507.06;;;14.99;100.00
19112;BME280;9688;51.906;8.376;2023-05-11T01:21:28;100511.53;;;14.98;100.00
19112;BME280;9688;51.906;8.376;2023-05-11T01:24:31;100507.91;;;14.99;100.00
19112;BME280;9688;51.906;8.376;2023-05-11T01:27:38;100510.50;;;15.01;100.00
19112;BME280;9688;51.906;8.376;2023-05-11T01:30:28;100508.88;;;14.98;100.00
19112;BME280;9688;51.906;8.376;2023-05-11T01:33:15;100507.91;;;14.99;100.00
19112;BME280;9688;51.906;8.376;2023-05-11T01:36:05;100507.25;;;14.95;100.00
19112;BME280;9688;51.906;8.376;2023-05-11T01:38:53;100510.00;;;14.94;100.00
19112;BME280;9688;51.906;8.376;2023-05-11T01:41:44;100505.72;;;14.91;100.00
19112;BME280;9688;51.906;8.376;2023-05-11T01:44:34;100511.06;;;14.91;100.00
19112;BME280;9688;51.906;8.376;2023-05-11T01:47:24;100505.72;;;14.91;100.00
19112;BME280;9688;51.906;8.376;2023-05-11T01:50:10;100511.72;;;14.95;100.00
19112;BME280;9688;51.906;8.376;2023-05-11T01:53:00;100510.88;;;14.94;100.00
19112;BME280;9688;51.906;8.376;2023-05-11T01:55:48;100510.88;;;14.94;100.00
19112;BME280;9688;51.906;8.376;2023-05-11T01:58:35;100516.84;;;14.98;100.00
19112;BME280;9688;51.906;8.376;2023-05-11T02:01:23;100516.84;;;14.98;100.00
19112;BME280;9688;51.906;8.376;2023-05-11T02:04:13;100518.84;;;14.94;100.00
19112;BME280;9688;51.906;8.376;2023-05-11T02:06:59;100521.69;;;14.91;100.00
19112;BME280;9688;51.906;8.376;2023-05-11T02:09:47;100515.78;;;14.86;100.00
19112;BME280;9688;51.906;8.376;2023-05-11T02:12:35;100517.91;;;14.80;100.00
19112;BME280;9688;51.906;8.376;2023-05-11T02:15:22;100522.50;;;14.78;100.00
19112;BME280;9688;51.906;8.376;2023-05-11T02:18:11;100523.25;;;14.80;100.00
19112;BME280;9688;51.906;8.376;2023-05-11T02:21:00;100518.81;;;14.80;100.00
19112;BME280;9688;51.906;8.376;2023-05-11T02:23:47;100521.34;;;14.82;100.00
19112;BME280;9688;51.906;8.376;2023-05-11T02:26:34;100515.00;;;14.84;100.00
19112;BME280;9688;51.906;8.376;2023-05-11T02:29:20;100519.28;;;14.87;100.00
19112;BME280;9688;51.906;8.376;2023-05-11T02:32:08;100516.63;;;14.87;100.00
19112;BME280;9688;51.906;8.376;2023-05-11T02:34:59;100522.81;;;14.87;100.00
19112;BME280;9688;51.906;8.376;2023-05-11T02:37:47;100516.63;;;14.87;100.00
19112;BME280;9688;51.906;8.376;2023-05-11T02:40:38;100528.13;;;14.87;100.00
19112;BME280;9688;51.906;8.376;2023-05-11T02:43:31;100531.50;;;14.91;100.00
19112;BME280;9688;51.906;8.376;2023-05-11T02:46:20;100526.91;;;14.93;100.00
19112;BME280;9688;51.906;8.376;2023-05-11T02:49:09;100526.16;;;14.91;100.00
19112;BME280;9688;51.906;8.376;2023-05-11T02:51:55;100527.09;;;14.90;100.00
19112;BME280;9688;51.906;8.376;2023-05-11T02:54:43;100521.88;;;14.88;100.00
19112;BME280;9688;51.906;8.376;2023-05-11T02:57:30;100526.16;;;14.91;100.00
19112;BME280;9688;51.906;8.376;2023-05-11T03:00:16;100528.66;;;14.94;100.00
19112;BME280;9688;51.906;8.376;2023-05-11T03:03:02;100522.28;;;14.97;100.00
19112;BME280;9688;51.906;8.376;2023-05-11T03:05:51;100527.50;;;14.98;100.00
19112;BME280;9688;51.906;8.376;2023-05-11T03:08:36;100517.72;;;14.99;100.00
19112;BME280;9688;51.906;8.376;2023-05-11T03:11:24;100528.28;;;15.00;100.00
19112;BME280;9688;51.906;8.376;2023-05-11T03:14:11;100529.22;;;14.99;100.00
19112;BME280;9688;51.906;8.376;2023-05-11T03:16:57;100527.63;;;14.97;100.00
19112;BME280;9688;51.906;8.376;2023-05-11T03:19:43;100524.00;;;14.98;100.00
19112;BME280;9688;51.906;8.376;2023-05-11T03:22:30;100519.44;;;15.00;100.00
19112;BME280;9688;51.906;8.376;2023-05-11T03:25:17;100520.28;;;15.00;100.00
19112;BME280;9688;51.906;8.376;2023-05-11T03:28:05;100522.00;;;15.01;100.00
19112;BME280;9688;51.906;8.376;2023-05-11T03:30:52;100527.31;;;15.01;100.00
19112;BME280;9688;51.906;8.376;2023-05-11T03:33:38;100523.03;;;14.99;100.00
19112;BME280;9688;51.906;8.376;2023-05-11T03:36:25;100522.38;;;14.95;100.00
19112;BME280;9688;51.906;8.376;2023-05-11T03:39:11;100524.84;;;14.98;100.00
19112;BME280;9688;51.906;8.376;2023-05-11T03:41:59;100524.19;;;14.94;100.00
19112;BME280;9688;51.906;8.376;2023-05-11T03:44:48;100524.19;;;14.94;100.00
19112;BME280;9688;51.906;8.376;2023-05-11T03:47:35;100522.09;;;15.00;100.00
19112;BME280;9688;51.906;8.376;2023-05-11T03:50:23;100523.88;;;14.99;100.00
19112;BME280;9688;51.906;8.376;2023-05-11T03:53:10;100525.63;;;15.00;100.00
19112;BME280;9688;51.906;8.376;2023-05-11T03:55:56;100518.56;;;14.99;100.00
19112;BME280;9688;51.906;8.376;2023-05-11T03:58:42;100521.16;;;15.01;100.00
19112;BME280;9688;51.906;8.376;2023-05-11T04:01:31;100515.06;;;14.99;100.00
19112;BME280;9688;51.906;8.376;2023-05-11T04:04:17;100524.84;;;14.98;100.00
19112;BME280;9688;51.906;8.376;2023-05-11T04:07:04;100530.09;;;15.00;100.00
19112;BME280;9688;51.906;8.376;2023-05-11T04:09:50;100529.91;;;15.03;100.00
19112;BME280;9688;51.906;8.376;2023-05-11T04:12:35;100523.63;;;15.04;100.00
19112;BME280;9688;51.906;8.376;2023-05-11T04:15:22;100527.13;;;15.04;100.00
19112;BME280;9688;51.906;8.376;2023-05-11T04:18:09;100528.03;;;15.05;100.00
19112;BME280;9688;51.906;8.376;2023-05-11T04:20:55;100528.03;;;15.05;100.00
19112;BME280;9688;51.906;8.376;2023-05-11T04:23:40;100527.91;;;15.06;100.00
19112;BME280;9688;51.906;8.376;2023-05-11T04:26:26;100530.69;;;15.05;100.00
19112;BME280;9688;51.906;8.376;2023-05-11T04:29:12;100535.91;;;15.06;100.00
19112;BME280;9688;51.906;8.376;2023-05-11T04:31:57;100527.06;;;15.06;100.00
19112;BME280;9688;51.906;8.376;2023-05-11T04:34:46;100529.63;;;15.07;100.00
19112;BME280;9688;51.906;8.376;2023-05-11T04:37:32;100530.50;;;15.08;100.00
19112;BME280;9688;51.906;8.376;2023-05-11T04:40:17;100531.25;;;15.10;100.00
19112;BME280;9688;51.906;8.376;2023-05-11T04:43:03;100532.97;;;15.11;100.00
19112;BME280;9688;51.906;8.376;2023-05-11T04:45:49;100541.91;;;15.10;100.00
19112;BME280;9688;51.906;8.376;2023-05-11T04:48:39;100535.66;;;15.11;100.00
19112;BME280;9688;51.906;8.376;2023-05-11T04:51:26;100541.63;;;15.14;100.00
19112;BME280;9688;51.906;8.376;2023-05-11T04:54:12;100534.44;;;15.16;100.00
19112;BME280;9688;51.906;8.376;2023-05-11T04:56:58;100540.50;;;15.18;100.00
19112;BME280;9688;51.906;8.376;2023-05-11T04:59:43;100534.25;;;15.20;100.00
19112;BME280;9688;51.906;8.376;2023-05-11T05:02:30;100541.19;;;15.22;100.00
19112;BME280;9688;51.906;8.376;2023-05-11T05:05:15;100543.56;;;15.27;100.00
19112;BME280;9688;51.906;8.376;2023-05-11T05:08:02;100537.13;;;15.31;100.00
19112;BME280;9688;51.906;8.376;2023-05-11T05:10:49;100535.91;;;15.36;100.00
19112;BME280;9688;51.906;8.376;2023-05-11T05:13:36;100538.19;;;15.43;100.00
19112;BME280;9688;51.906;8.376;2023-05-11T05:16:21;100542.41;;;15.47;100.00
19112;BME280;9688;51.906;8.376;2023-05-11T05:19:07;100545.91;;;15.47;100.00
19112;BME280;9688;51.906;8.376;2023-05-11T05:21:58;100552.94;;;15.48;100.00
19112;BME280;9688;51.906;8.376;2023-05-11T05:24:45;100549.44;;;15.48;100.00
19112;BME280;9688;51.906;8.376;2023-05-11T05:27:30;100560.88;;;15.50;100.00
19112;BME280;9688;51.906;8.376;2023-05-11T05:30:16;100557.44;;;15.48;100.00
19112;BME280;9688;51.906;8.376;2023-05-11T05:33:02;100560.88;;;15.50;100.00
19112;BME280;9688;51.906;8.376;2023-05-11T05:35:49;100557.91;;;15.54;100.00
19112;BME280;9688;51.906;8.376;2023-05-11T05:38:36;100557.91;;;15.54;100.00
19112;BME280;9688;51.906;8.376;2023-05-11T05:41:24;100573.03;;;15.54;100.00
19112;BME280;9688;51.906;8.376;2023-05-11T05:44:10;100569.59;;;15.52;100.00
19112;BME280;9688;51.906;8.376;2023-05-11T05:46:56;100569.78;;;15.49;100.00
19112;BME280;9688;51.906;8.376;2023-05-11T05:49:46;100574.25;;;15.48;100.00
19112;BME280;9688;51.906;8.376;2023-05-11T05:52:32;100577.50;;;15.53;100.00
19112;BME280;9688;51.906;8.376;2023-05-11T05:55:18;100580.19;;;15.53;100.00
19112;BME280;9688;51.906;8.376;2023-05-11T05:58:07;100580.09;;;15.55;100.00
19112;BME280;9688;51.906;8.376;2023-05-11T06:00:53;100586.94;;;15.59;100.00
19112;BME280;9688;51.906;8.376;2023-05-11T06:03:39;100577.13;;;15.59;100.00
19112;BME280;9688;51.906;8.376;2023-05-11T06:06:24;100583.16;;;15.63;100.00
19112;BME280;9688;51.906;8.376;2023-05-11T06:09:10;100583.84;;;15.67;100.00
19112;BME280;9688;51.906;8.376;2023-05-11T06:11:56;100592.63;;;15.69;100.00
19112;BME280;9688;51.906;8.376;2023-05-11T06:14:44;100584.53;;;15.70;100.00
19112;BME280;9688;51.906;8.376;2023-05-11T06:17:33;100587.34;;;15.67;100.00
19112;BME280;9688;51.906;8.376;2023-05-11T06:20:23;100579.34;;;15.67;100.00
19112;BME280;9688;51.906;8.376;2023-05-11T06:23:10;100585.38;;;15.71;100.00
19112;BME280;9688;51.906;8.376;2023-05-11T06:25:56;100588.81;;;15.73;100.00
19112;BME280;9688;51.906;8.376;2023-05-11T06:28:42;100588.34;;;15.80;100.00
19112;BME280;9688;51.906;8.376;2023-05-11T06:31:32;100586.47;;;15.82;100.00
19112;BME280;9688;51.906;8.376;2023-05-11T06:34:20;100583.50;;;15.87;100.00
19112;BME280;9688;51.906;8.376;2023-05-11T06:37:06;100582.19;;;15.94;100.00
19112;BME280;9688;51.906;8.376;2023-05-11T06:39:52;100586.94;;;16.03;100.00
19112;BME280;9688;51.906;8.376;2023-05-11T06:42:42;100588.19;;;16.12;100.00
19112;BME280;9688;51.906;8.376;2023-05-11T06:45:27;100593.63;;;16.11;100.00
19112;BME280;9688;51.906;8.376;2023-05-11T06:48:14;100588.47;;;16.08;100.00
19112;BME280;9688;51.906;8.376;2023-05-11T06:51:02;100599.50;;;16.01;100.00
19112;BME280;9688;51.906;8.376;2023-05-11T06:53:49;100589.59;;;16.03;100.00
19112;BME280;9688;51.906;8.376;2023-05-11T06:56:35;100593.69;;;16.09;100.00
19112;BME280;9688;51.906;8.376;2023-05-11T06:59:21;100595.25;;;16.13;100.00
19112;BME280;9688;51.906;8.376;2023-05-11T07:02:07;100595.91;;;16.17;100.00
19112;BME280;9688;51.906;8.376;2023-05-11T07:04:54;100591.34;;;16.19;100.00
19112;BME280;9688;51.906;8.376;2023-05-11T07:07:40;100598.44;;;16.18;100.00
19112;BME280;9688;51.906;8.376;2023-05-11T07:10:26;100601.03;;;16.20;100.00
19112;BME280;9688;51.906;8.376;2023-05-11T07:13:11;100602.84;;;16.19;100.00
19112;BME280;9688;51.906;8.376;2023-05-11T07:15:59;100605.41;;;16.21;100.00
19112;BME280;9688;51.906;8.376;2023-05-11T07:18:45;100600.84;;;16.23;100.00
19112;BME280;9688;51.906;8.376;2023-05-11T07:21:35;100602.66;;;16.22;100.00
19112;BME280;9688;51.906;8.376;2023-05-11T07:24:22;100605.13;;;16.25;100.00
19112;BME280;9688;51.906;8.376;2023-05-11T07:27:08;100606.69;;;16.30;100.00
19112;BME280;9688;51.906;8.376;2023-05-11T07:29:53;100598.47;;;16.33;100.00
19112;BME280;9688;51.906;8.376;2023-05-11T07:32:42;100597.31;;;16.37;100.00
19112;BME280;9688;51.906;8.376;2023-05-11T07:35:29;100601.69;;;16.38;100.00
19112;BME280;9688;51.906;8.376;2023-05-11T07:38:16;100594.38;;;16.41;100.00
19112;BME280;9688;51.906;8.376;2023-05-11T07:41:02;100602.81;;;16.48;100.00
19112;BME280;9688;51.906;8.376;2023-05-11T07:43:48;100602.28;;;16.57;100.00
19112;BME280;9688;51.906;8.376;2023-05-11T07:46:34;100600.50;;;16.70;100.00
19112;BME280;9688;51.906;8.376;2023-05-11T07:49:23;100596.13;;;16.84;100.00
19112;BME280;9688;51.906;8.376;2023-05-11T07:52:09;100594.56;;;16.94;100.00
19112;BME280;9688;51.906;8.376;2023-05-11T07:54:57;100609.13;;;17.03;100.00
19112;BME280;9688;51.906;8.376;2023-05-11T07:57:44;100598.66;;;17.00;99.95
19112;BME280;9688;51.906;8.376;2023-05-11T08:00:32;100603.63;;;16.91;100.00
19112;BME280;9688;51.906;8.376;2023-05-11T08:03:22;100606.75;;;16.98;100.00
19112;BME280;9688;51.906;8.376;2023-05-11T08:06:08;100606.25;;;17.06;100.00
19112;BME280;9688;51.906;8.376;2023-05-11T08:08:55;100598.81;;;17.11;99.22
19112;BME280;9688;51.906;8.376;2023-05-11T08:11:47;100599.25;;;17.17;99.68
19112;BME280;9688;51.906;8.376;2023-05-11T08:14:35;100605.25;;;17.21;99.09
19112;BME280;9688;51.906;8.376;2023-05-11T08:17:22;100597.69;;;17.28;98.41
19112;BME280;9688;51.906;8.376;2023-05-11T08:20:09;100600.06;;;17.32;98.76
19112;BME280;9688;51.906;8.376;2023-05-11T08:22:55;100600.69;;;17.36;98.60
19112;BME280;9688;51.906;8.376;2023-05-11T08:25:42;100600.28;;;17.42;97.75
19112;BME280;9688;51.906;8.376;2023-05-11T08:28:34;100606.94;;;17.49;97.49
19112;BME280;9688;51.906;8.376;2023-05-11T08:31:21;100603.06;;;17.53;97.21
19112;BME280;9688;51.906;8.376;2023-05-11T08:34:08;100605.31;;;17.59;97.25
19112;BME280;9688;51.906;8.376;2023-05-11T08:36:56;100605.31;;;17.59;96.93
19112;BME280;9688;51.906;8.376;2023-05-11T08:39:45;100608.00;;;17.59;97.25
19112;BME280;9688;51.906;8.376;2023-05-11T08:42:34;100603.72;;;17.57;96.91
19112;BME280;9688;51.906;8.376;2023-05-11T08:45:25;100605.88;;;17.65;97.08
19112;BME280;9688;51.906;8.376;2023-05-11T08:48:11;100599.78;;;17.75;96.95
19112;BME280;9688;51.906;8.376;2023-05-11T08:50:59;100609.03;;;17.84;96.36
19112;BME280;9688;51.906;8.376;2023-05-11T08:53:46;100608.72;;;17.89;96.02
19112;BME280;9688;51.906;8.376;2023-05-11T08:56:33;100619.63;;;17.98;95.07
19112;BME280;9688;51.906;8.376;2023-05-11T08:59:25;100609.38;;;18.05;94.85
19112;BME280;9688;51.906;8.376;2023-05-11T09:02:16;100616.88;;;18.13;94.52
19112;BME280;9688;51.906;8.376;2023-05-11T09:05:05;100606.47;;;18.21;94.20
19112;BME280;9688;51.906;8.376;2023-05-11T09:07:54;100605.91;;;18.28;93.92
19112;BME280;9688;51.906;8.376;2023-05-11T09:10:44;100607.53;;;18.31;93.78
19112;BME280;9688;51.906;8.376;2023-05-11T09:13:30;100612.44;;;18.37;93.86
19112;BME280;9688;51.906;8.376;2023-05-11T09:16:16;100615.31;;;18.47;94.03
19112;BME280;9688;51.906;8.376;2023-05-11T09:19:03;100609.66;;;18.52;93.20
19112;BME280;9688;51.906;8.376;2023-05-11T09:21:52;100607.59;;;18.55;93.24
19112;BME280;9688;51.906;8.376;2023-05-11T09:24:41;100613.34;;;18.62;93.13
19112;BME280;9688;51.906;8.376;2023-05-11T09:27:29;100607.06;;;18.63;93.46
19112;BME280;9688;51.906;8.376;2023-05-11T09:30:18;100609.16;;;18.70;93.29
19112;BME280;9688;51.906;8.376;2023-05-11T09:33:07;100605.94;;;18.78;92.42
19112;BME280;9688;51.906;8.376;2023-05-11T09:35:54;100606.47;;;18.83;91.95
19112;BME280;9688;51.906;8.376;2023-05-11T09:38:40;100604.53;;;18.85;91.58
19112;BME280;9688;51.906;8.376;2023-05-11T09:41:26;100611.44;;;18.77;92.21
19112;BME280;9688;51.906;8.376;2023-05-11T09:44:14;100605.84;;;18.80;92.05
19112;BME280;9688;51.906;8.376;2023-05-11T09:47:10;100606.59;;;18.82;91.64
19112;BME280;9688;51.906;8.376;2023-05-11T09:49:57;100613.13;;;18.78;91.11
19112;BME280;9688;51.906;8.376;2023-05-11T09:52:49;100611.84;;;18.83;91.10
19112;BME280;9688;51.906;8.376;2023-05-11T09:55:35;100606.38;;;18.72;91.14
19112;BME280;9688;51.906;8.376;2023-05-11T09:58:24;100615.94;;;18.76;90.99
19112;BME280;9688;51.906;8.376;2023-05-11T10:01:10;100611.31;;;18.78;90.91
19112;BME280;9688;51.906;8.376;2023-05-11T10:03:58;100606.38;;;18.85;90.73
19112;BME280;9688;51.906;8.376;2023-05-11T10:06:46;100608.88;;;18.99;90.33
19112;BME280;9688;51.906;8.376;2023-05-11T10:09:36;100601.75;;;19.11;90.01
19112;BME280;9688;51.906;8.376;2023-05-11T10:12:27;100598.28;;;19.22;89.57
19112;BME280;9688;51.906;8.376;2023-05-11T10:15:17;100598.91;;;19.25;89.51
19112;BME280;9688;51.906;8.376;2023-05-11T10:18:08;100602.47;;;19.37;89.19
19112;BME280;9688;51.906;8.376;2023-05-11T10:20:54;100603.34;;;19.37;89.13
19112;BME280;9688;51.906;8.376;2023-05-11T10:23:42;100594.66;;;19.34;89.69
19112;BME280;9688;51.906;8.376;2023-05-11T10:26:31;100588.06;;;19.27;90.18
19112;BME280;9688;51.906;8.376;2023-05-11T10:29:18;100592.13;;;19.32;90.08
19112;BME280;9688;51.906;8.376;2023-05-11T10:32:06;100586.03;;;19.42;89.62
19112;BME280;9688;51.906;8.376;2023-05-11T10:34:55;100590.31;;;19.44;89.80
19112;BME280;9688;51.906;8.376;2023-05-11T10:37:41;100590.31;;;19.44;89.29
19112;BME280;9688;51.906;8.376;2023-05-11T10:40:27;100586.88;;;19.42;89.23
19112;BME280;9688;51.906;8.376;2023-05-11T10:46:44;100592.31;;;19.18;89.99
19112;BME280;9688;51.906;8.376;2023-05-11T10:49:50;100600.34;;;18.94;90.78
19112;BME280;9688;51.906;8.376;2023-05-11T10:53:06;100602.78;;;18.47;91.66
19112;BME280;9688;51.906;8.376;2023-05-11T10:56:16;100596.97;;;17.91;93.64
19112;BME280;9688;51.906;8.376;2023-05-11T10:59:19;100600.41;;;17.41;94.83
19112;BME280;9688;51.906;8.376;2023-05-11T11:02:09;100609.22;;;17.01;96.65
19112;BME280;9688;51.906;8.376;2023-05-11T11:04:56;100613.84;;;16.70;97.51
19112;BME280;9688;51.906;8.376;2023-05-11T11:07:57;100607.22;;;16.35;99.38
19112;BME280;9688;51.906;8.376;2023-05-11T11:10:48;100606.09;;;16.10;100.00
19112;BME280;9688;51.906;8.376;2023-05-11T11:13:55;100615.78;;;15.82;100.00
19112;BME280;9688;51.906;8.376;2023-05-11T11:17:21;100608.13;;;15.46;100.00
19112;BME280;9688;51.906;8.376;2023-05-11T11:20:46;100603.38;;;15.21;100.00
19112;BME280;9688;51.906;8.376;2023-05-11T11:23:45;100602.81;;;15.16;100.00
19112;BME280;9688;51.906;8.376;2023-05-11T11:26:48;100604.78;;;15.12;100.00
19112;BME280;9688;51.906;8.376;2023-05-11T11:29:36;100606.25;;;15.02;100.00
19112;BME280;9688;51.906;8.376;2023-05-11T11:32:27;100601.34;;;15.10;100.00
19112;BME280;9688;51.906;8.376;2023-05-11T11:35:45;100601.50;;;15.23;100.00
19112;BME280;9688;51.906;8.376;2023-05-11T11:38:33;100604.06;;;15.25;100.00
19112;BME280;9688;51.906;8.376;2023-05-11T11:41:41;100599.97;;;15.19;100.00
19112;BME280;9688;51.906;8.376;2023-05-11T11:44:32;100601.50;;;15.23;100.00
19112;BME280;9688;51.906;8.376;2023-05-11T11:47:19;100601.28;;;15.42;100.00
19112;BME280;9688;51.906;8.376;2023-05-11T11:50:16;100603.50;;;15.50;100.00
19112;BME280;9688;51.906;8.376;2023-05-11T11:53:03;100611.75;;;15.45;100.00
19112;BME280;9688;51.906;8.376;2023-05-11T11:55:50;100608.22;;;15.45;100.00
19112;BME280;9688;51.906;8.376;2023-05-11T11:58:56;100609.00;;;15.47;100.00
19112;BME280;9688;51.906;8.376;2023-05-11T12:01:43;100613.44;;;15.46;100.00
19112;BME280;9688;51.906;8.376;2023-05-11T12:04:48;100608.81;;;15.50;100.00
19112;BME280;9688;51.906;8.376;2023-05-11T12:07:40;100612.94;;;15.55;100.00
19112;BME280;9688;51.906;8.376;2023-05-11T12:10:30;100605.41;;;15.62;100.00
19112;BME280;9688;51.906;8.376;2023-05-11T12:13:19;100609.81;;;15.63;100.00
19112;BME280;9688;51.906;8.376;2023-05-11T12:16:09;100606.00;;;15.67;100.00
19112;BME280;9688;51.906;8.376;2023-05-11T12:18:58;100608.72;;;15.81;100.00
19112;BME280;9688;51.906;8.376;2023-05-11T12:21:48;100611.78;;;15.90;100.00
19112;BME280;9688;51.906;8.376;2023-05-11T12:24:38;100612.38;;;15.95;100.00
19112;BME280;9688;51.906;8.376;2023-05-11T12:27:24;100606.94;;;15.96;100.00
19112;BME280;9688;51.906;8.376;2023-05-11T12:30:18;100604.75;;;16.03;100.00
19112;BME280;9688;51.906;8.376;2023-05-11T12:33:06;100607.41;;;16.03;100.00
19112;BME280;9688;51.906;8.376;2023-05-11T12:35:52;100605.41;;;15.92;100.00
19112;BME280;9688;51.906;8.376;2023-05-11T12:38:42;100601.22;;;15.88;100.00
19112;BME280;9688;51.906;8.376;2023-05-11T12:41:33;100602.94;;;15.89;100.00
19112;BME280;9688;51.906;8.376;2023-05-11T12:44:20;100602.56;;;15.95;100.00
19112;BME280;9688;51.906;8.376;2023-05-11T12:47:09;100598.84;;;15.98;100.00
19112;BME280;9688;51.906;8.376;2023-05-11T12:49:55;100593.69;;;16.09;100.00
19112;BME280;9688;51.906;8.376;2023-05-11T12:52:42;100590.66;;;16.30;100.00
19112;BME280;9688;51.906;8.376;2023-05-11T12:55:28;100592.38;;;16.31;100.00
19112;BME280;9688;51.906;8.376;2023-05-11T12:58:16;100595.50;;;16.23;100.00
19112;BME280;9688;51.906;8.376;2023-05-11T13:01:05;100586.66;;;16.22;100.00
19112;BME280;9688;51.906;8.376;2023-05-11T13:03:53;100585.88;;;16.35;100.00
19112;BME280;9688;51.906;8.376;2023-05-11T13:06:43;100586.63;;;16.37;100.00
19112;BME280;9688;51.906;8.376;2023-05-11T13:09:29;100589.13;;;16.40;100.00
19112;BME280;9688;51.906;8.376;2023-05-11T13:12:18;100592.47;;;16.43;100.00
19112;BME280;9688;51.906;8.376;2023-05-11T13:15:09;100585.88;;;16.35;100.00
19112;BME280;9688;51.906;8.376;2023-05-11T13:17:57;100584.38;;;16.31;100.00
19112;BME280;9688;51.906;8.376;2023-05-11T13:20:43;100594.00;;;16.33;100.00
19112;BME280;9688;51.906;8.376;2023-05-11T13:23:30;100590.84;;;16.26;100.00
19112;BME280;9688;51.906;8.376;2023-05-11T13:26:21;100585.41;;;16.28;100.00
19112;BME280;9688;51.906;8.376;2023-05-11T13:29:11;100580.72;;;16.32;100.00
19112;BME280;9688;51.906;8.376;2023-05-11T13:31:59;100582.66;;;16.30;100.00
19112;BME280;9688;51.906;8.376;2023-05-11T13:34:44;100588.28;;;16.25;100.00
19112;BME280;9688;51.906;8.376;2023-05-11T13:37:31;100576.94;;;16.21;100.00
19112;BME280;9688;51.906;8.376;2023-05-11T13:40:17;100584.19;;;16.19;100.00
19112;BME280;9688;51.906;8.376;2023-05-11T13:43:03;100584.78;;;16.10;100.00
19112;BME280;9688;51.906;8.376;2023-05-11T13:45:49;100587.59;;;16.07;100.00
19112;BME280;9688;51.906;8.376;2023-05-11T13:48:36;100577.13;;;16.04;100.00
19112;BME280;9688;51.906;8.376;2023-05-11T13:51:23;100582.47;;;16.04;100.00
19112;BME280;9688;51.906;8.376;2023-05-11T13:54:13;100575.16;;;16.08;100.00
19112;BME280;9688;51.906;8.376;2023-05-11T13:57:00;100575.69;;;16.13;100.00
19112;BME280;9688;51.906;8.376;2023-05-11T13:59:45;100573.91;;;16.13;100.00
19112;BME280;9688;51.906;8.376;2023-05-11T14:02:31;100573.59;;;16.18;100.00
19112;BME280;9688;51.906;8.376;2023-05-11T14:05:18;100576.75;;;16.24;100.00
19112;BME280;9688;51.906;8.376;2023-05-11T14:08:04;100576.44;;;16.29;100.00
19112;BME280;9688;51.906;8.376;2023-05-11T14:10:50;100569.88;;;16.35;100.00
19112;BME280;9688;51.906;8.376;2023-05-11T14:13:36;100566.53;;;16.31;100.00
19112;BME280;9688;51.906;8.376;2023-05-11T14:16:25;100566.75;;;16.28;100.00
19112;BME280;9688;51.906;8.376;2023-05-11T14:19:12;100567.31;;;16.33;100.00
19112;BME280;9688;51.906;8.376;2023-05-11T14:22:00;100564.34;;;16.23;100.00
19112;BME280;9688;51.906;8.376;2023-05-11T14:24:47;100560.56;;;16.13;100.00
19112;BME280;9688;51.906;8.376;2023-05-11T14:27:33;100561.69;;;16.09;100.00
19112;BME280;9688;51.906;8.376;2023-05-11T14:30:20;100561.13;;;16.04;100.00
19112;BME280;9688;51.906;8.376;2023-05-11T14:33:06;100565.34;;;16.08;100.00
19112;BME280;9688;51.906;8.376;2023-05-11T14:35:53;100565.03;;;16.13;100.00
19112;BME280;9688;51.906;8.376;2023-05-11T14:38:42;100564.84;;;16.16;100.00
19112;BME280;9688;51.906;8.376;2023-05-11T14:41:28;100571.69;;;16.20;100.00
19112;BME280;9688;51.906;8.376;2023-05-11T14:44:14;100567.41;;;16.17;100.00
19112;BME280;9688;51.906;8.376;2023-05-11T14:47:00;100562.66;;;16.22;100.00